Time;durP1;ratioP1;P1;durP2;ratioP2;P2;SDS_P1;SDS_P2;PMS_P1;PMS_P2;Temp;Humidity;BMP_temperature;BMP_pressure;BME280_temperature;BME280_humidity;BME280_pressure;Samples;Min_cycle;Max_cycle;Signal;HPM_P1;HPM_P2
2021/07/26 00:01:49;;;;;;;11.32;5.28;;;22.60;85.60;;;;;;4983640;28;20097;-59
2021/07/26 00:04:15;;;;;;;8.68;4.15;;;22.60;85.70;;;;;;4983700;28;20458;-59
2021/07/26 00:06:43;;;;;;;9.25;4.90;;;22.60;85.70;;;;;;4967021;28;20041;-59
2021/07/26 00:09:08;;;;;;;7.88;4.22;;;22.60;85.70;;;;;;4985464;28;20022;-60
2021/07/26 00:11:34;;;;;;;9.55;4.18;;;22.60;85.80;;;;;;4984492;28;20113;-59
2021/07/26 00:13:59;;;;;;;7.13;4.88;;;22.60;85.90;;;;;;4982122;28;20030;-59
2021/07/26 00:16:25;;;;;;;7.63;4.70;;;22.50;85.90;;;;;;4998482;28;20042;-59
2021/07/26 00:18:50;;;;;;;7.63;4.63;;;22.50;85.90;;;;;;4983505;28;20026;-59
2021/07/26 00:21:16;;;;;;;6.93;4.00;;;22.50;86.00;;;;;;4982270;28;20521;-59
2021/07/26 00:23:42;;;;;;;5.25;4.22;;;22.50;86.00;;;;;;4981322;28;20026;-58
2021/07/26 00:26:08;;;;;;;7.03;4.80;;;22.50;86.10;;;;;;4980297;28;20018;-59
2021/07/26 00:28:33;;;;;;;9.00;4.68;;;22.50;86.20;;;;;;4983626;28;20023;-59
2021/07/26 00:30:59;;;;;;;6.25;5.03;;;22.50;86.20;;;;;;4983590;28;20031;-59
2021/07/26 00:34:19;;;;;;;9.95;5.03;;;22.40;86.20;;;;;;4981691;28;20092;-59
2021/07/26 00:36:55;;;;;;;9.75;5.63;;;22.40;86.30;;;;;;4984119;28;20040;-59
2021/07/26 00:39:22;;;;;;;7.65;4.95;;;22.40;86.30;;;;;;4951087;28;20137;-59
2021/07/26 00:41:48;;;;;;;6.55;5.50;;;22.40;86.40;;;;;;4981381;28;20038;-59
2021/07/26 00:44:15;;;;;;;6.38;4.82;;;22.40;86.40;;;;;;4983771;28;20112;-59
2021/07/26 00:46:40;;;;;;;7.20;4.80;;;22.40;86.50;;;;;;4982922;28;20482;-60
2021/07/26 00:49:09;;;;;;;8.43;5.22;;;22.40;86.60;;;;;;4984407;28;20308;-59
2021/07/26 00:51:35;;;;;;;8.77;5.22;;;22.40;86.70;;;;;;4983078;28;20026;-59
2021/07/26 00:54:01;;;;;;;8.52;4.70;;;22.30;86.70;;;;;;4982013;28;20553;-59
2021/07/26 00:56:27;;;;;;;6.40;4.43;;;22.30;86.70;;;;;;4981124;28;20104;-59
2021/07/26 00:58:52;;;;;;;11.50;4.93;;;22.30;86.80;;;;;;4982486;28;20489;-58
2021/07/26 01:01:18;;;;;;;9.32;4.97;;;22.30;86.90;;;;;;4982707;28;20073;-59
2021/07/26 01:03:44;;;;;;;5.57;4.88;;;22.30;87.20;;;;;;4983044;28;20113;-59
2021/07/26 01:06:10;;;;;;;8.57;4.60;;;22.30;87.20;;;;;;4983602;28;20054;-59
2021/07/26 01:08:36;;;;;;;8.80;4.57;;;22.30;87.40;;;;;;4981500;28;20504;-59
2021/07/26 01:11:03;;;;;;;6.18;4.38;;;22.30;87.50;;;;;;4980971;28;20088;-59
2021/07/26 01:13:29;;;;;;;7.32;4.65;;;22.20;87.60;;;;;;4981167;28;20759;-59
2021/07/26 01:15:55;;;;;;;5.95;4.53;;;22.20;87.70;;;;;;4983417;28;20026;-58
2021/07/26 01:18:30;;;;;;;6.05;4.68;;;22.20;87.80;;;;;;4983565;28;20383;-59
2021/07/26 01:20:59;;;;;;;;;;;22.20;88.10;;;;;;4981662;28;20019;-59
2021/07/26 01:23:26;;;;;;;7.45;4.97;;;22.10;88.00;;;;;;4983114;28;19917;-59
2021/07/26 01:25:51;;;;;;;7.22;5.28;;;22.10;88.10;;;;;;4981177;28;20040;-59
2021/07/26 01:28:17;;;;;;;9.55;5.35;;;22.10;88.30;;;;;;4983231;28;20038;-59
2021/07/26 01:30:43;;;;;;;6.10;5.45;;;22.10;88.50;;;;;;4981406;28;20040;-59
2021/07/26 01:33:09;;;;;;;9.02;5.47;;;22.10;88.50;;;;;;4959725;28;20026;-59
2021/07/26 01:35:35;;;;;;;7.18;5.22;;;22.10;88.70;;;;;;4979733;28;20070;-59
2021/07/26 01:38:01;;;;;;;7.03;5.53;;;22.10;88.70;;;;;;4966209;28;20485;-59
2021/07/26 01:40:28;;;;;;;8.05;4.55;;;22.10;88.80;;;;;;4982260;28;20909;-59
2021/07/26 01:43:00;;;;;;;7.18;4.50;;;22.10;88.80;;;;;;4981329;28;20042;-58
2021/07/26 01:45:26;;;;;;;10.98;4.75;;;22.10;88.90;;;;;;4979439;28;20568;-59
2021/07/26 01:47:54;;;;;;;7.88;5.40;;;22.00;89.00;;;;;;4979958;28;20126;-59
2021/07/26 01:50:20;;;;;;;7.95;4.65;;;22.10;89.10;;;;;;4980235;28;21135;-59
2021/07/26 01:52:46;;;;;;;5.97;5.05;;;22.10;89.10;;;;;;4978541;28;20030;-60
2021/07/26 01:55:11;;;;;;;6.85;4.68;;;22.00;89.10;;;;;;4979084;28;20034;-59
2021/07/26 01:57:37;;;;;;;6.57;4.53;;;22.00;89.10;;;;;;4980209;28;20363;-59
2021/07/26 02:00:03;;;;;;;6.95;4.22;;;22.00;89.20;;;;;;4979435;28;20108;-59
2021/07/26 02:02:29;;;;;;;4.82;4.32;;;22.00;89.30;;;;;;4981033;28;20083;-59
2021/07/26 02:04:55;;;;;;;5.15;4.10;;;22.00;89.40;;;;;;4976364;28;20068;-59
2021/07/26 02:07:20;;;;;;;6.53;4.22;;;22.00;89.50;;;;;;4963952;28;20034;-59
2021/07/26 02:09:46;;;;;;;6.05;4.50;;;22.00;89.70;;;;;;4982218;28;20037;-58
2021/07/26 02:12:11;;;;;;;7.35;5.65;;;22.00;89.60;;;;;;4979928;28;20031;-59
2021/07/26 02:14:37;;;;;;;5.80;4.32;;;22.00;89.60;;;;;;4980754;28;20494;-59
2021/07/26 02:17:03;;;;;;;6.80;4.05;;;21.90;89.60;;;;;;4981512;28;20021;-58
2021/07/26 02:19:28;;;;;;;5.60;4.40;;;21.90;89.70;;;;;;4979823;28;20654;-58
2021/07/26 02:21:54;;;;;;;4.65;4.10;;;21.90;89.70;;;;;;4982877;28;20030;-59
2021/07/26 02:24:19;;;;;;;4.95;4.40;;;21.90;89.80;;;;;;4981262;28;20382;-59
2021/07/26 02:26:45;;;;;;;6.03;4.43;;;21.90;89.80;;;;;;4980107;28;20125;-58
2021/07/26 02:29:10;;;;;;;5.50;3.97;;;21.70;89.90;;;;;;4980536;28;20061;-59
2021/07/26 02:31:36;;;;;;;4.55;4.13;;;21.90;89.90;;;;;;4981834;28;20062;-59
2021/07/26 02:34:01;;;;;;;4.50;4.07;;;21.90;90.00;;;;;;4980555;28;20069;-59
2021/07/26 02:36:27;;;;;;;5.75;4.00;;;21.80;90.00;;;;;;4980501;28;20720;-59
2021/07/26 02:38:52;;;;;;;6.45;4.30;;;21.80;90.00;;;;;;4979454;28;20046;-59
2021/07/26 02:41:18;;;;;;;5.78;4.35;;;21.80;90.00;;;;;;4979586;28;20022;-59
2021/07/26 02:43:43;;;;;;;7.50;3.67;;;21.80;90.10;;;;;;4979566;28;20493;-58
2021/07/26 02:46:09;;;;;;;5.15;3.70;;;21.80;90.10;;;;;;4981536;28;20030;-59
2021/07/26 02:48:38;;;;;;;4.93;4.03;;;21.80;90.10;;;;;;4980403;28;20018;-59
2021/07/26 02:51:04;;;;;;;4.60;3.80;;;21.80;90.10;;;;;;4978119;28;20036;-58
2021/07/26 02:53:29;;;;;;;4.57;4.07;;;21.80;90.10;;;;;;4980341;28;20026;-58
2021/07/26 02:55:55;;;;;;;5.30;3.75;;;21.80;90.10;;;;;;4980839;28;20030;-59
2021/07/26 02:58:20;;;;;;;4.72;4.28;;;21.80;90.10;;;;;;4982493;28;20031;-59
2021/07/26 03:00:46;;;;;;;9.43;5.10;;;21.70;90.10;;;;;;4983728;28;20045;-59
2021/07/26 03:03:12;;;;;;;5.55;4.70;;;21.80;90.20;;;;;;4982648;28;20030;-58
2021/07/26 03:05:37;;;;;;;4.72;3.90;;;21.80;90.20;;;;;;4979868;28;20042;-59
2021/07/26 03:08:03;;;;;;;4.13;3.78;;;21.70;90.20;;;;;;4981426;28;20022;-59
2021/07/26 03:10:29;;;;;;;6.57;4.30;;;21.70;90.20;;;;;;4982672;28;20378;-59
2021/07/26 03:12:54;;;;;;;7.30;4.00;;;21.70;90.20;;;;;;4983111;28;20042;-59
2021/07/26 03:15:21;;;;;;;4.57;4.18;;;21.70;90.30;;;;;;4981377;28;20092;-59
2021/07/26 03:17:47;;;;;;;5.18;4.53;;;21.70;90.30;;;;;;4981672;28;20043;-58
2021/07/26 03:20:13;;;;;;;5.63;4.45;;;21.70;90.30;;;;;;4981523;28;20022;-58
2021/07/26 03:22:53;;;;;;;6.82;4.18;;;21.60;90.30;;;;;;4982744;28;20042;-59
2021/07/26 03:25:19;;;;;;;4.72;3.90;;;21.70;90.40;;;;;;4980943;28;20108;-58
2021/07/26 03:27:45;;;;;;;6.78;4.32;;;21.60;90.40;;;;;;4980654;28;20100;-58
2021/07/26 03:30:11;;;;;;;5.60;4.25;;;21.60;90.40;;;;;;4963883;28;20030;-59
2021/07/26 03:32:36;;;;;;;6.03;3.88;;;21.60;90.40;;;;;;4981493;28;20487;-59
2021/07/26 03:35:03;;;;;;;4.68;3.67;;;21.60;90.50;;;;;;4982094;28;20039;-58
2021/07/26 03:37:28;;;;;;;5.45;3.83;;;21.60;90.50;;;;;;4980338;28;20038;-58
2021/07/26 03:39:54;;;;;;;6.93;3.60;;;21.60;90.50;;;;;;4980715;28;20038;-59
2021/07/26 03:42:19;;;;;;;5.30;3.95;;;21.50;90.50;;;;;;4980518;28;20030;-59
2021/07/26 03:44:45;;;;;;;4.88;3.80;;;21.50;90.50;;;;;;4986893;28;20498;-59
2021/07/26 03:47:10;;;;;;;4.28;3.88;;;21.50;90.60;;;;;;4981519;28;20738;-58
2021/07/26 03:49:36;;;;;;;5.80;3.83;;;21.50;90.60;;;;;;4984271;28;20157;-58
2021/07/26 03:52:01;;;;;;;7.35;4.07;;;21.50;90.60;;;;;;4985775;28;20030;-58
2021/07/26 03:54:27;;;;;;;7.07;3.97;;;21.50;90.60;;;;;;4985498;28;20061;-59
2021/07/26 03:56:57;;;;;;;4.40;3.78;;;21.50;90.60;;;;;;4982321;28;20046;-59
2021/07/26 03:59:22;;;;;;;5.22;3.85;;;21.50;90.60;;;;;;4983195;28;20133;-59
2021/07/26 04:01:48;;;;;;;4.78;3.88;;;21.50;90.70;;;;;;4985932;28;20149;-59
2021/07/26 04:04:15;;;;;;;6.65;3.53;;;21.50;90.70;;;;;;4985180;28;20018;-58
2021/07/26 04:06:42;;;;;;;6.40;4.32;;;21.40;90.70;;;;;;4988376;28;20101;-58
2021/07/26 04:09:08;;;;;;;3.65;3.35;;;21.40;90.70;;;;;;4984457;28;20124;-59
2021/07/26 04:11:37;;;;;;;5.95;3.90;;;21.40;90.70;;;;;;4984348;28;20136;-59
2021/07/26 04:14:07;;;;;;;4.50;3.75;;;21.40;90.70;;;;;;4985789;28;20030;-59
2021/07/26 04:16:32;;;;;;;4.35;3.95;;;21.40;90.70;;;;;;4985062;28;20049;-58
2021/07/26 04:19:00;;;;;;;5.95;3.90;;;21.40;90.70;;;;;;4983514;28;20398;-58
2021/07/26 04:21:32;;;;;;;4.82;3.92;;;21.40;90.70;;;;;;4981200;28;20125;-59
2021/07/26 04:23:58;;;;;;;9.10;3.65;;;21.40;90.70;;;;;;4985167;28;20192;-58
2021/07/26 04:26:24;;;;;;;5.78;3.40;;;21.40;90.80;;;;;;4981129;28;20125;-58
2021/07/26 04:28:50;;;;;;;7.18;4.10;;;21.30;90.80;;;;;;4984682;28;20521;-59
2021/07/26 04:31:15;;;;;;;6.03;3.70;;;21.30;90.80;;;;;;4981859;28;20069;-58
2021/07/26 04:33:41;;;;;;;4.07;3.45;;;21.30;90.80;;;;;;4984171;28;20030;-58
2021/07/26 04:36:06;;;;;;;4.82;3.60;;;21.30;90.80;;;;;;4984564;28;20042;-58
2021/07/26 04:38:32;;;;;;;4.20;3.80;;;21.30;90.80;;;;;;4999535;28;20064;-59
2021/07/26 04:40:58;;;;;;;4.43;3.58;;;21.30;90.80;;;;;;4983935;28;20654;-58
2021/07/26 04:43:23;;;;;;;3.58;3.25;;;21.30;90.80;;;;;;4983119;28;20084;-58
2021/07/26 04:45:49;;;;;;;4.50;4.00;;;21.30;90.90;;;;;;4999049;28;20026;-58
2021/07/26 04:48:15;;;;;;;5.32;3.42;;;21.30;90.90;;;;;;4982382;28;20141;-58
2021/07/26 04:50:40;;;;;;;3.88;3.47;;;21.30;90.90;;;;;;4998081;28;20113;-59
2021/07/26 04:53:06;;;;;;;3.75;3.28;;;21.30;90.90;;;;;;4984834;28;20046;-59
2021/07/26 04:55:31;;;;;;;3.80;3.38;;;21.20;90.90;;;;;;4983884;28;20081;-59
2021/07/26 04:57:57;;;;;;;3.85;3.35;;;21.30;90.90;;;;;;4983899;28;20112;-58
2021/07/26 05:00:26;;;;;;;4.72;3.60;;;21.30;90.90;;;;;;4983093;28;20030;-59
2021/07/26 05:02:52;;;;;;;3.80;3.13;;;21.20;90.90;;;;;;4985022;28;20026;-58
2021/07/26 05:05:18;;;;;;;3.67;3.33;;;21.20;90.90;;;;;;4984385;28;20556;-58
2021/07/26 05:07:43;;;;;;;4.95;3.45;;;21.20;90.90;;;;;;4982754;28;20437;-59
2021/07/26 05:10:10;;;;;;;4.78;4.05;;;21.20;90.90;;;;;;4981515;28;20030;-58
2021/07/26 05:12:36;;;;;;;3.85;3.50;;;21.20;91.00;;;;;;4964048;28;20058;-59
2021/07/26 05:15:01;;;;;;;5.05;3.60;;;21.20;91.00;;;;;;4982046;28;20120;-59
2021/07/26 05:17:27;;;;;;;4.07;3.58;;;21.20;91.00;;;;;;4983197;28;20019;-59
2021/07/26 05:19:53;;;;;;;3.83;3.53;;;21.20;91.00;;;;;;4983647;28;20014;-58
2021/07/26 05:22:19;;;;;;;5.65;4.15;;;21.20;91.00;;;;;;4981966;28;20518;-58
2021/07/26 05:24:45;;;;;;;4.35;3.72;;;21.10;91.00;;;;;;4987485;28;20058;-58
2021/07/26 05:27:10;;;;;;;4.35;3.70;;;21.10;91.00;;;;;;4981516;28;20034;-58
2021/07/26 05:29:36;;;;;;;4.38;3.78;;;21.10;91.00;;;;;;4965959;28;20368;-58
2021/07/26 05:32:02;;;;;;;4.20;3.80;;;21.10;91.00;;;;;;4982906;28;20382;-59
2021/07/26 05:34:27;;;;;;;3.92;3.53;;;21.10;91.00;;;;;;4984142;28;20065;-58
2021/07/26 05:36:53;;;;;;;4.30;3.88;;;21.10;91.10;;;;;;4983355;28;20133;-58
2021/07/26 05:39:18;;;;;;;4.97;4.05;;;21.10;91.10;;;;;;4983673;28;20463;-59
2021/07/26 05:41:44;;;;;;;4.25;3.85;;;21.10;91.20;;;;;;4984477;28;20621;-59
2021/07/26 05:44:10;;;;;;;5.03;3.30;;;21.20;91.20;;;;;;4984353;28;20041;-59
2021/07/26 05:46:35;;;;;;;4.53;4.00;;;21.10;91.10;;;;;;4982706;28;20034;-59
2021/07/26 05:49:01;;;;;;;5.05;3.90;;;21.20;91.20;;;;;;4983496;28;20501;-58
2021/07/26 05:51:26;;;;;;;5.20;4.18;;;21.10;91.20;;;;;;4981015;28;20121;-60
2021/07/26 05:53:52;;;;;;;4.28;3.88;;;21.20;91.20;;;;;;4981673;28;20042;-58
2021/07/26 05:56:17;;;;;;;4.60;3.72;;;21.20;91.20;;;;;;4982843;28;20036;-58
2021/07/26 05:58:48;;;;;;;5.32;3.95;;;21.10;91.20;;;;;;4983248;28;20210;-59
2021/07/26 06:03:58;;;;;;;5.68;3.92;;;21.20;91.20;;;;;;4981274;28;20529;-58
2021/07/26 06:06:24;;;;;;;5.28;3.75;;;21.20;91.20;;;;;;4981576;28;20050;-59
2021/07/26 06:08:49;;;;;;;5.07;4.13;;;21.20;91.20;;;;;;4982221;28;20030;-59
2021/07/26 06:11:15;;;;;;;5.15;3.92;;;21.20;91.20;;;;;;4983882;28;20030;-58
2021/07/26 06:13:40;;;;;;;6.30;4.15;;;21.20;91.20;;;;;;4983075;28;20092;-59
2021/07/26 06:16:07;;;;;;;6.38;4.15;;;21.20;91.30;;;;;;4982243;28;20038;-60
2021/07/26 06:18:33;;;;;;;6.38;4.18;;;21.20;91.40;;;;;;4964629;28;20042;-59
2021/07/26 06:20:58;;;;;;;8.15;4.40;;;21.20;91.40;;;;;;4979563;28;20088;-58
2021/07/26 06:23:26;;;;;;;4.65;3.78;;;21.30;91.40;;;;;;4982947;28;20118;-58
2021/07/26 06:25:51;;;;;;;9.15;4.40;;;21.30;91.40;;;;;;4982452;28;20030;-59
2021/07/26 06:28:17;;;;;;;16.25;4.78;;;21.30;91.40;;;;;;4981796;28;20153;-58
2021/07/26 06:30:42;;;;;;;13.50;4.90;;;21.30;91.60;;;;;;4982145;28;20359;-58
2021/07/26 06:33:09;;;;;;;32.40;6.65;;;21.30;91.70;;;;;;4981968;28;20038;-58
2021/07/26 06:35:34;;;;;;;36.95;7.13;;;21.30;91.60;;;;;;4965325;28;20318;-58
2021/07/26 06:38:00;;;;;;;38.33;6.55;;;21.30;91.50;;;;;;4979766;28;20268;-58
2021/07/26 06:40:25;;;;;;;21.08;5.85;;;21.40;91.50;;;;;;4980165;28;20022;-59
2021/07/26 06:42:51;;;;;;;38.90;7.00;;;21.30;91.40;;;;;;4993425;28;20045;-59
2021/07/26 06:45:17;;;;;;;24.65;5.70;;;21.30;91.50;;;;;;4977189;28;20069;-59
2021/07/26 06:47:43;;;;;;;38.50;5.82;;;21.30;91.50;;;;;;4976431;28;20105;-59
2021/07/26 06:50:10;;;;;;;20.48;5.93;;;21.40;91.60;;;;;;4982747;28;20014;-59
2021/07/26 06:52:35;;;;;;;16.73;4.45;;;21.40;91.30;;;;;;4996042;28;20128;-58
2021/07/26 06:55:01;;;;;;;19.98;5.55;;;21.40;91.30;;;;;;4977599;28;20129;-59
2021/07/26 06:57:26;;;;;;;24.05;5.90;;;21.40;91.30;;;;;;4979295;28;20148;-58
2021/07/26 06:59:52;;;;;;;26.90;6.03;;;21.40;91.30;;;;;;4980931;28;20038;-59
2021/07/26 07:02:17;;;;;;;26.05;6.50;;;21.40;91.20;;;;;;4980992;28;20070;-58
2021/07/26 07:04:43;;;;;;;40.20;7.03;;;21.50;91.20;;;;;;4977207;28;20489;-58
2021/07/26 07:07:10;;;;;;;35.70;6.60;;;21.50;91.60;;;;;;4975662;28;20038;-58
2021/07/26 07:09:36;;;;;;;23.60;5.78;;;21.50;91.50;;;;;;4978456;28;20458;-59
2021/07/26 07:12:01;;;;;;;40.00;6.82;;;21.50;91.60;;;;;;4975191;28;20161;-59
2021/07/26 07:14:27;;;;;;;22.75;6.82;;;21.40;91.70;;;;;;4976829;28;20466;-58
2021/07/26 07:16:53;;;;;;;25.58;6.97;;;21.40;91.80;;;;;;4964645;28;20037;-59
2021/07/26 07:19:18;;;;;;;26.90;6.70;;;21.40;91.90;;;;;;4980588;28;20022;-58
2021/07/26 07:21:44;;;;;;;25.05;6.65;;;21.40;92.00;;;;;;4975041;28;20027;-58
2021/07/26 07:24:09;;;;;;;17.25;6.43;;;21.40;92.10;;;;;;4980617;28;20050;-59
2021/07/26 07:26:35;;;;;;;29.67;6.88;;;21.40;92.20;;;;;;4981629;28;20026;-59
2021/07/26 07:29:01;;;;;;;29.25;8.07;;;21.40;92.20;;;;;;4982934;28;20031;-58
2021/07/26 07:31:27;;;;;;;24.90;7.38;;;21.40;92.20;;;;;;4984020;28;20741;-58
2021/07/26 07:33:58;;;;;;;25.25;8.43;;;21.40;92.30;;;;;;4979420;28;20993;-59
2021/07/26 07:36:24;;;;;;;49.75;8.30;;;21.50;92.40;;;;;;4978659;28;20320;-59
2021/07/26 07:38:50;;;;;;;24.95;7.10;;;21.50;92.30;;;;;;4982751;28;20050;-59
2021/07/26 07:41:16;;;;;;;32.65;7.95;;;21.50;92.30;;;;;;4982907;28;20042;-59
2021/07/26 07:43:42;;;;;;;17.55;7.20;;;21.50;92.20;;;;;;4982933;28;20136;-59
2021/07/26 07:46:08;;;;;;;19.95;6.57;;;21.50;92.20;;;;;;4981783;28;20022;-59
2021/07/26 07:48:33;;;;;;;20.88;6.70;;;21.50;92.30;;;;;;4981920;28;20403;-59
2021/07/26 07:51:00;;;;;;;17.23;6.13;;;21.50;92.30;;;;;;4981890;28;20442;-59
2021/07/26 07:53:26;;;;;;;16.38;7.00;;;21.50;92.20;;;;;;4981040;28;20110;-60
2021/07/26 07:55:52;;;;;;;22.75;7.72;;;21.60;92.40;;;;;;4981565;28;20065;-59
2021/07/26 07:58:17;;;;;;;22.10;7.43;;;21.60;92.80;;;;;;4984129;28;20223;-59
2021/07/26 08:00:43;;;;;;;17.30;6.90;;;21.60;92.20;;;;;;4979794;28;20133;-59
2021/07/26 08:03:09;;;;;;;36.03;7.18;;;21.60;92.00;;;;;;4981335;28;20663;-59
2021/07/26 08:05:34;;;;;;;26.42;7.78;;;21.60;91.90;;;;;;4981530;28;20670;-59
2021/07/26 08:08:00;;;;;;;20.90;6.65;;;21.70;91.90;;;;;;4980660;28;20030;-59
2021/07/26 08:10:25;;;;;;;20.27;6.75;;;21.70;92.10;;;;;;4996964;28;20054;-60
2021/07/26 08:12:51;;;;;;;22.83;7.10;;;21.70;91.90;;;;;;4981055;28;21802;-60
2021/07/26 08:15:17;;;;;;;21.17;7.07;;;21.70;91.90;;;;;;4981079;28;20080;-59
2021/07/26 08:17:44;;;;;;;26.75;7.88;;;21.70;91.90;;;;;;4979681;28;20081;-59
2021/07/26 08:20:11;;;;;;;34.55;7.45;;;21.70;92.00;;;;;;4982507;28;20033;-59
2021/07/26 08:22:36;;;;;;;25.02;8.32;;;21.70;91.80;;;;;;4982528;28;20084;-59
2021/07/26 08:25:03;;;;;;;19.52;7.47;;;21.80;91.80;;;;;;4981183;28;20796;-60
2021/07/26 08:27:28;;;;;;;33.15;8.70;;;21.80;91.90;;;;;;4965934;28;20061;-59
2021/07/26 08:29:54;;;;;;;23.63;8.38;;;21.80;91.70;;;;;;4979296;28;20426;-59
2021/07/26 08:32:20;;;;;;;33.15;7.65;;;21.80;91.90;;;;;;4979747;28;20041;-59
2021/07/26 08:34:45;;;;;;;35.70;7.60;;;21.80;92.00;;;;;;4995896;28;20022;-60
2021/07/26 08:37:11;;;;;;;25.90;7.30;;;21.90;92.00;;;;;;4982211;28;20121;-59
2021/07/26 08:39:38;;;;;;;27.70;8.07;;;21.90;91.80;;;;;;4977146;28;20505;-59
2021/07/26 08:42:04;;;;;;;34.75;7.80;;;21.90;91.70;;;;;;4978387;28;20050;-60
2021/07/26 08:44:33;;;;;;;23.95;7.75;;;21.90;91.60;;;;;;4979349;28;20116;-59
2021/07/26 08:46:59;;;;;;;49.45;7.82;;;21.90;91.50;;;;;;4979637;28;20108;-59
2021/07/26 08:49:26;;;;;;;29.40;8.05;;;21.90;91.70;;;;;;4980007;28;20312;-59
2021/07/26 08:51:52;;;;;;;32.05;6.90;;;21.90;91.70;;;;;;4979571;28;20037;-60
2021/07/26 08:54:17;;;;;;;51.22;9.52;;;21.90;91.50;;;;;;4979256;28;20034;-59
2021/07/26 08:56:43;;;;;;;86.38;12.70;;;22.00;91.40;;;;;;4978888;28;20042;-59
2021/07/26 08:59:08;;;;;;;60.70;10.05;;;21.90;91.30;;;;;;4979575;28;20117;-59
2021/07/26 09:01:34;;;;;;;52.30;9.57;;;22.00;91.30;;;;;;4975631;28;20102;-60
2021/07/26 09:04:00;;;;;;;65.22;9.27;;;22.00;91.30;;;;;;4976050;28;20027;-59
2021/07/26 09:06:26;;;;;;;72.75;11.43;;;22.00;91.10;;;;;;4980336;28;20030;-59
2021/07/26 09:08:52;;;;;;;73.15;10.07;;;22.00;91.00;;;;;;4981366;28;21711;-60
2021/07/26 09:11:18;;;;;;;46.45;10.02;;;22.10;91.20;;;;;;4977146;28;20557;-60
2021/07/26 09:13:46;;;;;;;55.63;9.43;;;22.10;91.20;;;;;;4979586;28;20101;-59
2021/07/26 09:16:18;;;;;;;56.47;9.45;;;22.10;91.00;;;;;;4982083;28;20438;-60
2021/07/26 09:18:44;;;;;;;33.50;6.85;;;22.10;90.80;;;;;;4980734;28;20133;-60
2021/07/26 09:21:10;;;;;;;33.88;7.63;;;22.10;90.40;;;;;;4978300;28;20042;-59
2021/07/26 09:23:38;;;;;;;40.80;7.28;;;22.10;90.40;;;;;;4979206;28;20485;-60
2021/07/26 09:26:24;;;;;;;51.42;8.27;;;22.20;90.40;;;;;;4977051;28;20374;-60
2021/07/26 09:28:50;;;;;;;;;;;22.20;90.20;;;;;;4981168;28;20030;-60
2021/07/26 09:31:15;;;;;;;38.92;7.25;;;22.20;90.10;;;;;;4978230;28;19914;-59
2021/07/26 09:33:42;;;;;;;37.85;9.13;;;22.20;90.10;;;;;;4978768;28;20158;-60
2021/07/26 09:36:12;;;;;;;27.85;7.55;;;22.30;90.10;;;;;;4979736;28;20092;-60
2021/07/26 09:38:47;;;;;;;26.35;7.40;;;22.30;90.00;;;;;;4977924;28;20085;-60
2021/07/26 09:41:13;;;;;;;34.13;7.15;;;22.30;89.50;;;;;;4983869;28;20049;-60
2021/07/26 09:43:39;;;;;;;31.33;7.30;;;22.50;89.80;;;;;;4979462;28;20022;-60
2021/07/26 09:46:04;;;;;;;30.73;7.63;;;22.40;89.50;;;;;;4978126;28;20066;-59
2021/07/26 09:48:31;;;;;;;36.38;7.00;;;22.40;89.30;;;;;;4978707;28;20046;-59
2021/07/26 09:50:58;;;;;;;36.53;7.25;;;22.40;89.30;;;;;;4978087;28;20932;-60
2021/07/26 09:53:25;;;;;;;39.58;8.23;;;22.40;89.10;;;;;;4976300;28;20029;-60
2021/07/26 09:55:58;;;;;;;77.97;10.52;;;22.50;89.20;;;;;;4974341;28;20140;-59
2021/07/26 09:58:40;;;;;;;53.42;8.88;;;22.50;89.00;;;;;;4977418;28;20024;-60
2021/07/26 10:01:07;;;;;;;75.93;10.27;;;22.50;88.90;;;;;;4974731;28;20479;-60
2021/07/26 10:03:32;;;;;;;50.17;8.80;;;22.50;88.80;;;;;;4970306;28;20049;-60
2021/07/26 10:05:59;;;;;;;66.60;9.60;;;22.60;88.70;;;;;;4971686;28;20046;-60
2021/07/26 10:08:25;;;;;;;102.32;14.38;;;22.60;88.40;;;;;;4975668;28;20061;-60
2021/07/26 10:10:51;;;;;;;96.90;13.48;;;22.60;88.30;;;;;;4961095;28;20066;-60
2021/07/26 10:13:18;;;;;;;63.83;11.00;;;22.60;88.10;;;;;;4974328;28;20130;-60
2021/07/26 10:15:43;;;;;;;55.17;9.75;;;22.70;87.90;;;;;;4975992;28;20032;-60
2021/07/26 10:18:09;;;;;;;69.93;10.07;;;22.70;87.70;;;;;;4972140;28;20452;-60
2021/07/26 10:20:39;;;;;;;127.28;14.57;;;22.70;87.50;;;;;;4972812;28;20034;-59
2021/07/26 10:23:14;;;;;;;64.10;9.68;;;22.70;87.60;;;;;;4973748;28;20045;-60
2021/07/26 10:25:40;;;;;;;46.60;8.75;;;22.80;87.50;;;;;;4976796;28;20041;-60
2021/07/26 10:28:16;;;;;;;162.05;18.52;;;22.80;87.40;;;;;;4978287;28;20454;-60
2021/07/26 10:30:41;;;;;;;107.03;14.65;;;22.80;87.30;;;;;;4977608;28;20114;-60
2021/07/26 10:33:07;;;;;;;72.05;11.55;;;22.80;87.10;;;;;;4978805;28;20361;-60
2021/07/26 10:35:35;;;;;;;83.22;11.43;;;22.90;86.80;;;;;;4977685;28;20041;-60
2021/07/26 10:38:00;;;;;;;91.80;12.57;;;22.90;86.80;;;;;;4975219;28;20042;-63
2021/07/26 10:40:39;;;;;;;118.32;15.00;;;22.90;86.70;;;;;;4988795;28;20038;-60
2021/07/26 10:43:05;;;;;;;75.70;10.48;;;22.90;86.80;;;;;;4989641;28;20105;-60
2021/07/26 10:45:34;;;;;;;48.10;9.70;;;23.00;86.40;;;;;;4977794;28;20152;-60
2021/07/26 10:48:27;;;;;;;62.30;10.45;;;23.00;85.90;;;;;;4971626;28;20037;-59
2021/07/26 10:50:57;;;;;;;62.42;9.40;;;23.00;85.50;;;;;;4979198;28;20030;-60
2021/07/26 10:53:34;;;;;;;62.55;9.45;;;23.10;85.50;;;;;;4976128;28;20034;-60
2021/07/26 10:56:08;;;;;;;78.90;11.75;;;23.10;84.90;;;;;;4978704;28;20030;-60
2021/07/26 10:58:39;;;;;;;79.70;11.45;;;23.20;84.80;;;;;;4978314;28;20568;-60
2021/07/26 11:01:20;;;;;;;83.70;13.05;;;23.20;84.60;;;;;;4978637;28;20081;-59
2021/07/26 11:03:46;;;;;;;59.30;8.70;;;23.30;84.40;;;;;;4971607;28;20042;-60
2021/07/26 11:06:31;;;;;;;83.72;11.65;;;23.40;83.60;;;;;;4958091;28;20045;-60
2021/07/26 11:09:17;;;;;;;67.32;10.48;;;23.40;83.50;;;;;;4973830;28;20888;-60
2021/07/26 11:11:43;;;;;;;55.10;9.60;;;23.50;82.70;;;;;;4974354;28;20026;-60
2021/07/26 11:14:09;;;;;;;52.88;7.88;;;23.60;82.20;;;;;;4976967;28;20034;-60
2021/07/26 11:17:04;;;;;;;67.97;10.05;;;23.60;81.30;;;;;;4975318;28;20394;-59
2021/07/26 11:19:39;;;;;;;59.07;9.37;;;23.60;81.20;;;;;;4989212;28;20040;-59
2021/07/26 11:22:25;;;;;;;80.37;10.17;;;23.70;81.40;;;;;;4973952;28;20129;-59
2021/07/26 11:24:53;;;;;;;34.83;6.75;;;23.80;80.90;;;;;;4946152;28;20066;-62
2021/07/26 11:27:21;;;;;;;60.67;8.82;;;23.90;80.10;;;;;;4975944;28;20058;-60
2021/07/26 11:29:51;;;;;;;56.25;8.80;;;23.90;80.00;;;;;;4976720;28;20056;-60
2021/07/26 11:32:20;;;;;;;75.45;9.75;;;24.00;80.10;;;;;;4976699;28;20581;-59
2021/07/26 11:34:46;;;;;;;51.38;8.88;;;24.10;80.20;;;;;;4957845;28;20478;-60
2021/07/26 11:37:16;;;;;;;42.03;8.65;;;24.10;80.30;;;;;;4974922;28;20049;-63
2021/07/26 11:39:51;;;;;;;37.20;7.05;;;24.10;80.20;;;;;;4976600;28;20425;-59
2021/07/26 11:42:23;;;;;;;28.92;6.75;;;24.20;79.70;;;;;;4978316;28;20022;-59
2021/07/26 11:44:49;;;;;;;39.80;5.90;;;24.20;79.30;;;;;;4976883;28;20081;-60
2021/07/26 11:47:15;;;;;;;28.05;6.13;;;24.20;79.10;;;;;;4978312;28;20176;-60
2021/07/26 11:49:48;;;;;;;27.75;5.72;;;24.20;78.50;;;;;;4977186;28;20501;-60
2021/07/26 11:52:14;;;;;;;29.35;6.22;;;24.20;78.40;;;;;;4978306;28;20023;-60
2021/07/26 11:54:39;;;;;;;23.30;5.85;;;24.30;78.20;;;;;;4961254;28;20575;-60
2021/07/26 11:57:09;;;;;;;47.30;7.18;;;24.30;78.10;;;;;;4980207;28;20023;-60
2021/07/26 11:59:35;;;;;;;40.25;6.72;;;24.30;77.80;;;;;;4976163;28;20049;-60
2021/07/26 12:02:30;;;;;;;33.25;5.80;;;24.30;77.90;;;;;;4975961;28;20038;-60
2021/07/26 12:05:07;;;;;;;35.67;5.97;;;24.30;77.80;;;;;;4977035;28;20054;-59
2021/07/26 12:07:45;;;;;;;29.25;5.97;;;24.30;77.80;;;;;;4963390;28;20028;-60
2021/07/26 12:10:12;;;;;;;40.10;5.70;;;24.40;78.00;;;;;;4981087;28;20098;-60
2021/07/26 12:12:45;;;;;;;36.63;6.70;;;24.40;77.70;;;;;;4983147;28;20501;-60
2021/07/26 12:15:40;;;;;;;25.33;5.80;;;24.40;77.40;;;;;;4982268;28;20042;-60
2021/07/26 12:18:10;;;;;;;27.95;6.18;;;24.40;77.10;;;;;;4963783;28;20070;-59
2021/07/26 12:20:44;;;;;;;34.05;5.97;;;24.40;76.70;;;;;;4981123;28;20030;-60
2021/07/26 12:23:10;;;;;;;28.67;5.57;;;24.30;76.40;;;;;;4983095;28;20534;-59
2021/07/26 12:25:42;;;;;;;30.60;5.82;;;24.30;76.90;;;;;;4972720;28;20540;-60
2021/07/26 12:28:07;;;;;;;38.28;6.18;;;24.30;77.00;;;;;;4981643;28;20030;-59
2021/07/26 12:30:36;;;;;;;16.98;6.00;;;24.30;77.40;;;;;;4980225;28;20320;-59
2021/07/26 12:33:02;;;;;;;17.15;4.75;;;24.30;77.50;;;;;;4981993;28;20018;-59
2021/07/26 12:35:28;;;;;;;19.13;5.00;;;24.30;77.80;;;;;;4979553;28;20104;-59
2021/07/26 12:38:12;;;;;;;48.35;7.35;;;24.30;78.10;;;;;;4980191;28;20157;-59
2021/07/26 12:40:40;;;;;;;28.75;5.90;;;24.30;78.40;;;;;;4979003;28;20464;-59
2021/07/26 12:43:11;;;;;;;22.80;4.40;;;24.30;78.60;;;;;;4979695;28;20077;-59
2021/07/26 12:45:38;;;;;;;17.98;4.60;;;24.20;78.70;;;;;;4981135;28;20022;-59